createdAt,value
2018-05-24T00:02:19.530Z,98294.51
2018-05-24T00:04:47.763Z,98297.92
2018-05-24T00:07:15.988Z,98310.92
2018-05-24T00:09:44.242Z,98302.33
2018-05-24T00:12:12.480Z,98300.66
2018-05-24T00:14:40.772Z,98303.09
2018-05-24T00:17:08.971Z,98303.81
2018-05-24T00:19:37.195Z,98307.97
2018-05-24T00:22:06.184Z,98309.64
2018-05-24T00:24:34.443Z,98303.38
2018-05-24T00:27:02.675Z,98296.22
2018-05-24T00:29:30.900Z,98297.38
2018-05-24T00:31:59.165Z,98300.68
2018-05-24T00:34:27.399Z,98303.56
2018-05-24T00:36:55.619Z,98298.66
2018-05-24T00:39:23.867Z,98294.31
2018-05-24T00:41:52.108Z,98292.14
2018-05-24T00:44:21.095Z,98287.20
2018-05-24T00:46:49.363Z,98278.37
2018-05-24T00:49:18.426Z,98274.16
2018-05-24T00:51:46.651Z,98275.55
2018-05-24T00:54:15.677Z,98276.98
2018-05-24T00:56:43.662Z,98283.12
2018-05-24T00:59:11.883Z,98275.01
2018-05-24T01:01:40.917Z,98283.84
2018-05-24T01:04:09.147Z,98279.30
2018-05-24T01:06:37.376Z,98290.61
2018-05-24T01:09:05.740Z,98287.50
2018-05-24T01:11:33.975Z,98290.14
2018-05-24T01:14:02.209Z,98291.94
2018-05-24T01:16:30.455Z,98288.41
2018-05-24T01:18:58.704Z,98288.94
2018-05-24T01:21:26.922Z,98285.75
2018-05-24T01:23:55.182Z,98288.66
2018-05-24T01:26:23.408Z,98286.87
2018-05-24T01:28:51.640Z,98285.72
2018-05-24T01:31:19.894Z,98285.14
2018-05-24T01:33:48.882Z,98288.48
2018-05-24T01:36:17.112Z,98290.70
2018-05-24T01:38:45.359Z,98292.94
2018-05-24T01:41:13.588Z,98297.49
2018-05-24T01:43:41.816Z,98298.55
2018-05-24T01:46:10.055Z,98302.02
2018-05-24T01:48:38.292Z,98302.83
2018-05-24T01:51:06.563Z,98295.13
2018-05-24T01:53:34.786Z,98289.28
2018-05-24T01:56:03.775Z,98290.21
2018-05-24T01:58:32.048Z,98289.78
2018-05-24T02:01:00.262Z,98287.84
2018-05-24T02:03:28.507Z,98287.77
2018-05-24T02:05:57.498Z,98282.44
2018-05-24T02:08:25.730Z,98288.54
2018-05-24T02:10:53.999Z,98296.44
2018-05-24T02:13:22.223Z,98296.18
2018-05-24T02:15:50.449Z,98293.07
2018-05-24T02:18:18.728Z,98293.58
2018-05-24T02:20:46.967Z,98290.62
2018-05-24T02:23:23.957Z,98284.55
2018-05-24T02:25:52.179Z,98282.66
2018-05-24T02:28:20.411Z,98285.13
2018-05-24T02:30:48.667Z,98291.52
2018-05-24T02:33:16.904Z,98293.77
2018-05-24T02:35:45.172Z,98305.00
2018-05-24T02:38:14.132Z,98299.64
2018-05-24T02:40:42.364Z,98299.84
2018-05-24T02:43:10.591Z,98303.66
2018-05-24T02:45:38.834Z,98298.25
2018-05-24T02:48:07.831Z,98294.77
2018-05-24T02:50:36.054Z,98293.37
2018-05-24T02:53:04.322Z,98295.52
2018-05-24T02:55:32.540Z,98291.38
2018-05-24T02:58:00.780Z,98288.89
2018-05-24T03:00:29.020Z,98288.13
2018-05-24T03:02:57.239Z,98284.82
2018-05-24T03:05:25.499Z,98289.67
2018-05-24T03:07:53.730Z,98283.93
2018-05-24T03:10:21.955Z,98279.45
2018-05-24T03:12:50.215Z,98275.92
2018-05-24T03:15:18.438Z,98283.86
2018-05-24T03:17:46.668Z,98282.00
2018-05-24T03:20:14.943Z,98279.58
2018-05-24T03:22:43.170Z,98274.02
2018-05-24T03:25:11.392Z,98278.98
2018-05-24T03:27:39.657Z,98285.30
2018-05-24T03:30:07.895Z,98284.89
2018-05-24T03:32:36.131Z,98287.15
2018-05-24T03:35:04.395Z,98292.92
2018-05-24T03:37:32.630Z,98294.30
2018-05-24T03:40:00.859Z,98296.47
2018-05-24T03:42:29.123Z,98295.86
2018-05-24T03:44:57.355Z,98295.14
2018-05-24T03:47:25.592Z,98291.80
2018-05-24T03:49:53.872Z,98286.49
2018-05-24T03:52:22.095Z,98294.27
2018-05-24T03:54:50.329Z,98294.66
2018-05-24T03:57:18.580Z,98300.22
2018-05-24T04:00:13.247Z,98302.48
2018-05-24T04:02:59.039Z,98315.88
2018-05-24T04:05:28.040Z,98318.79
2018-05-24T04:07:56.267Z,98315.12
2018-05-24T04:10:24.516Z,98321.28
2018-05-24T04:12:52.750Z,98324.28
2018-05-24T04:15:21.006Z,98332.48
2018-05-24T04:17:49.231Z,98328.80
2018-05-24T04:20:17.455Z,98323.75
2018-05-24T04:22:45.691Z,98322.73
2018-05-24T04:25:13.925Z,98329.63
2018-05-24T04:27:42.163Z,98328.54
2018-05-24T04:30:10.444Z,98334.18
2018-05-24T04:32:38.687Z,98335.80
2018-05-24T04:35:06.916Z,98330.63
2018-05-24T04:37:35.292Z,98333.91
2018-05-24T04:40:03.584Z,98340.95
2018-05-24T04:42:31.807Z,98336.52
2018-05-24T04:45:00.039Z,98339.64
2018-05-24T04:47:28.277Z,98336.64
2018-05-24T04:49:56.508Z,98338.32
2018-05-24T04:52:25.495Z,98337.00
2018-05-24T04:54:53.817Z,98343.12
2018-05-24T04:57:22.037Z,98340.28
2018-05-24T04:59:50.263Z,98339.94
2018-05-24T05:02:18.504Z,98338.65
2018-05-24T05:04:47.499Z,98345.50
2018-05-24T05:07:15.763Z,98341.22
2018-05-24T05:09:43.987Z,98342.72
2018-05-24T05:12:12.216Z,98347.88
2018-05-24T05:14:40.547Z,98349.34
2018-05-24T05:17:08.703Z,98356.30
2018-05-24T05:19:36.981Z,98355.28
2018-05-24T05:22:05.183Z,98354.66
2018-05-24T05:24:33.407Z,98351.35
2018-05-24T05:27:02.404Z,98352.02
2018-05-24T05:29:30.666Z,98361.83
2018-05-24T05:31:58.659Z,98357.50
2018-05-24T05:34:26.896Z,98360.30
2018-05-24T05:36:55.121Z,98361.59
2018-05-24T05:39:23.452Z,98359.03
2018-05-24T05:41:51.709Z,98361.43
2018-05-24T05:44:20.707Z,98357.83
2018-05-24T05:46:48.935Z,98354.23
2018-05-24T05:49:17.166Z,98359.00
2018-05-24T05:51:45.394Z,98361.50
2018-05-24T05:54:13.624Z,98363.46
2018-05-24T05:56:41.935Z,98361.51
2018-05-24T05:59:10.195Z,98372.99
2018-05-24T06:01:38.531Z,98369.63
2018-05-24T06:04:06.803Z,98377.72
2018-05-24T06:06:34.971Z,98368.48
2018-05-24T06:09:03.201Z,98372.27
2018-05-24T06:11:32.203Z,98367.82
2018-05-24T06:14:00.430Z,98362.40
2018-05-24T06:16:28.666Z,98358.62
2018-05-24T06:18:56.952Z,98358.20
2018-05-24T06:21:25.219Z,98361.13
2018-05-24T06:23:53.451Z,98365.72
2018-05-24T06:26:21.707Z,98363.97
2018-05-24T06:28:49.952Z,98366.59
2018-05-24T06:31:18.183Z,98373.91
2018-05-24T06:33:46.403Z,98379.11
2018-05-24T06:36:14.642Z,98375.61
2018-05-24T06:38:42.866Z,98377.63
2018-05-24T06:41:11.115Z,98382.87
2018-05-24T06:43:39.338Z,98378.55
2018-05-24T06:46:07.591Z,98381.10
2018-05-24T06:48:35.816Z,98377.59
2018-05-24T06:51:04.043Z,98381.08
2018-05-24T06:53:32.333Z,98385.86
2018-05-24T06:56:00.571Z,98383.80
2018-05-24T06:58:28.836Z,98390.95
2018-05-24T07:00:57.108Z,98396.75
2018-05-24T07:03:25.353Z,98396.78
2018-05-24T07:05:53.668Z,98389.50
2018-05-24T07:08:21.849Z,98388.43
2018-05-24T07:10:50.831Z,98385.03
2018-05-24T07:13:19.059Z,98390.86
2018-05-24T07:15:47.324Z,98391.37
2018-05-24T07:18:15.561Z,98395.51
2018-05-24T07:20:43.794Z,98393.67
2018-05-24T07:23:12.332Z,98387.84
2018-05-24T07:25:41.324Z,98393.28
2018-05-24T07:28:09.543Z,98394.91
2018-05-24T07:30:37.779Z,98393.38
2018-05-24T07:33:06.766Z,98400.44
2018-05-24T07:35:35.040Z,98395.13
2018-05-24T07:38:03.262Z,98398.60
2018-05-24T07:40:31.483Z,98392.91
2018-05-24T07:43:00.512Z,98395.13
2018-05-24T07:45:28.736Z,98385.26
2018-05-24T07:47:56.959Z,98387.63
2018-05-24T07:50:25.287Z,98380.69
2018-05-24T07:52:53.504Z,98376.45
2018-05-24T07:55:22.494Z,98375.09
2018-05-24T07:57:50.751Z,98372.38
2018-05-24T08:00:18.975Z,98369.61
2018-05-24T08:02:47.199Z,98365.09
2018-05-24T08:05:15.510Z,98372.03
2018-05-24T08:07:43.497Z,98373.66
2018-05-24T08:10:11.732Z,98378.47
2018-05-24T08:12:39.975Z,98382.39
2018-05-24T08:15:08.232Z,98380.70
2018-05-24T08:17:36.490Z,98372.83
2018-05-24T08:20:04.720Z,98369.84
2018-05-24T08:22:33.040Z,98370.53
2018-05-24T08:25:01.944Z,98369.45
2018-05-24T08:27:30.187Z,98367.73
2018-05-24T08:29:59.191Z,98360.97
2018-05-24T08:32:27.443Z,98348.06
2018-05-24T08:34:56.452Z,98357.52
2018-05-24T08:37:25.435Z,98354.69
2018-05-24T08:39:53.658Z,98351.33
2018-05-24T08:42:21.900Z,98346.14
2018-05-24T08:44:50.890Z,98347.77
2018-05-24T08:47:19.168Z,98347.13
2018-05-24T08:49:47.384Z,98350.13
2018-05-24T08:52:16.384Z,98351.48
2018-05-24T08:54:44.602Z,98349.84
2018-05-24T08:57:12.873Z,98344.73
2018-05-24T08:59:41.109Z,98349.59
2018-05-24T09:02:09.331Z,98340.48
2018-05-24T09:04:38.380Z,98340.21
2018-05-24T09:07:06.592Z,98347.47
2018-05-24T09:09:34.830Z,98344.20
2018-05-24T09:12:03.083Z,98348.72
2018-05-24T09:14:31.305Z,98350.56
2018-05-24T09:16:59.527Z,98351.91
2018-05-24T09:19:27.766Z,98351.61
2018-05-24T09:21:56.081Z,98349.41
2018-05-24T09:24:24.220Z,98353.05
2018-05-24T09:26:52.472Z,98345.36
2018-05-24T09:29:21.811Z,98345.97
2018-05-24T09:31:49.939Z,98346.28
2018-05-24T09:34:18.216Z,98349.94
2018-05-24T09:36:46.455Z,98345.42
2018-05-24T09:39:14.691Z,98345.45
2018-05-24T09:41:42.955Z,98343.77
2018-05-24T09:44:11.185Z,98346.36
2018-05-24T09:46:39.409Z,98347.34
2018-05-24T09:49:07.824Z,98344.02
2018-05-24T09:51:36.815Z,98338.72
2018-05-24T09:54:05.050Z,98336.72
2018-05-24T09:56:33.311Z,98333.38
2018-05-24T09:59:01.535Z,98331.43
2018-05-24T10:01:30.528Z,98331.62
2018-05-24T10:03:58.791Z,98327.69
2018-05-24T10:06:27.014Z,98333.27
2018-05-24T10:08:55.239Z,98329.81
2018-05-24T10:11:23.496Z,98326.83
2018-05-24T10:13:51.722Z,98329.54
2018-05-24T10:16:20.039Z,98335.19
2018-05-24T10:18:48.191Z,98335.82
2018-05-24T10:21:16.411Z,98333.77
2018-05-24T10:23:44.643Z,98329.77
2018-05-24T10:26:12.923Z,98333.53
2018-05-24T10:28:41.159Z,98322.95
2018-05-24T10:31:09.374Z,98319.11
2018-05-24T10:33:37.627Z,98321.48
2018-05-24T10:36:06.622Z,98321.14
2018-05-24T10:38:34.856Z,98315.84
2018-05-24T10:41:03.099Z,98316.80
2018-05-24T10:43:31.332Z,98312.05
2018-05-24T10:46:00.328Z,98304.29
2018-05-24T10:48:28.593Z,98299.55
2018-05-24T10:50:56.827Z,98299.20
2018-05-24T10:53:25.027Z,98285.68
2018-05-24T10:55:53.294Z,98285.53
2018-05-24T10:58:21.515Z,98292.70
2018-05-24T11:00:49.743Z,98284.10
2018-05-24T11:03:18.014Z,98280.23
2018-05-24T11:05:46.246Z,98272.13
2018-05-24T11:08:15.228Z,98266.25
2018-05-24T11:10:43.462Z,98262.80
2018-05-24T11:13:12.447Z,98259.25
2018-05-24T11:15:40.683Z,98255.64
2018-05-24T11:18:08.915Z,98258.53
2018-05-24T11:20:37.180Z,98260.50
2018-05-24T11:23:05.411Z,98262.09
2018-05-24T11:25:34.402Z,98254.31
2018-05-24T11:28:02.658Z,98254.30
2018-05-24T11:30:30.894Z,98249.44
2018-05-24T11:32:59.123Z,98244.87
2018-05-24T11:35:28.147Z,98250.86
2018-05-24T11:37:56.376Z,98241.25
2018-05-24T11:40:24.599Z,98232.28
2018-05-24T11:42:52.872Z,98234.98
2018-05-24T11:45:21.846Z,98244.06
2018-05-24T11:47:50.075Z,98245.55
2018-05-24T11:50:19.091Z,98246.72
2018-05-24T11:52:47.314Z,98240.23
2018-05-24T11:55:15.543Z,98241.17
2018-05-24T11:57:43.802Z,98244.47
2018-05-24T12:00:12.797Z,98245.09
2018-05-24T12:02:41.022Z,98248.78
2018-05-24T12:05:09.279Z,98245.78
2018-05-24T12:07:37.503Z,98242.36
2018-05-24T12:10:05.735Z,98241.59
2018-05-24T12:12:34.751Z,98242.62
2018-05-24T12:15:02.992Z,98243.38
2018-05-24T12:17:31.207Z,98228.47
2018-05-24T12:19:59.480Z,98234.07
2018-05-24T12:22:27.715Z,98222.98
2018-05-24T12:24:55.935Z,98215.73
2018-05-24T12:27:24.179Z,98213.62
2018-05-24T12:29:52.394Z,98213.30
2018-05-24T12:32:20.634Z,98209.45
2018-05-24T12:34:48.887Z,98206.02
2018-05-24T12:37:17.107Z,98208.76
2018-05-24T12:39:45.326Z,98208.44
2018-05-24T12:42:13.739Z,98208.53
2018-05-24T12:44:42.752Z,98197.14
2018-05-24T12:47:10.959Z,98199.31
2018-05-24T12:49:39.206Z,98201.31
2018-05-24T12:52:08.192Z,98199.34
2018-05-24T12:54:36.412Z,98192.40
2018-05-24T12:57:04.663Z,98188.32
2018-05-24T12:59:32.884Z,98184.65
2018-05-24T13:02:01.107Z,98172.96
2018-05-24T13:04:29.350Z,98168.58
2018-05-24T13:06:57.571Z,98161.65
2018-05-24T13:09:25.802Z,98161.39
2018-05-24T13:11:54.065Z,98156.07
2018-05-24T13:14:22.279Z,98157.51
2018-05-24T13:16:50.499Z,98150.20
2018-05-24T13:19:18.760Z,98151.23
2018-05-24T13:21:46.995Z,98158.16
2018-05-24T13:24:15.982Z,98158.30
2018-05-24T13:26:44.235Z,98163.77
2018-05-24T13:29:12.462Z,98164.82
2018-05-24T13:31:40.693Z,98161.83
2018-05-24T13:34:08.968Z,98170.91
2018-05-24T13:36:37.196Z,98171.83
2018-05-24T13:39:06.195Z,98176.52
2018-05-24T13:41:34.427Z,98169.73
2018-05-24T13:44:03.419Z,98175.09
2018-05-24T13:46:31.676Z,98177.81
2018-05-24T13:48:59.914Z,98176.53
2018-05-24T13:51:28.144Z,98177.16
2018-05-24T13:53:56.369Z,98172.52
2018-05-24T13:56:24.629Z,98167.39
2018-05-24T13:58:52.831Z,98171.17
2018-05-24T14:01:21.051Z,98158.19
2018-05-24T14:03:50.076Z,98159.72
2018-05-24T14:06:18.304Z,98164.13
2018-05-24T14:08:46.519Z,98153.39
2018-05-24T14:11:14.767Z,98166.92
2018-05-24T14:13:42.994Z,98156.05
2018-05-24T14:16:11.219Z,98145.30
2018-05-24T14:18:39.490Z,98132.00
2018-05-24T14:21:07.707Z,98121.28
2018-05-24T14:23:35.940Z,98122.70
2018-05-24T14:26:04.215Z,98130.05
2018-05-24T14:28:32.431Z,98139.89
2018-05-24T14:31:00.658Z,98153.22
2018-05-24T14:33:28.915Z,98163.69
2018-05-24T14:35:57.142Z,98165.08
2018-05-24T14:38:26.118Z,98168.77
2018-05-24T14:40:54.366Z,98183.05
2018-05-24T14:43:22.595Z,98191.78
2018-05-24T14:45:50.820Z,98200.76
2018-05-24T14:48:19.068Z,98203.96
2018-05-24T14:50:47.303Z,98220.23
2018-05-24T14:53:15.532Z,98226.34
2018-05-24T14:55:43.782Z,98234.65
2018-05-24T14:58:12.006Z,98244.23
2018-05-24T15:00:40.231Z,98246.41
2018-05-24T15:03:08.487Z,98248.09
2018-05-24T15:05:36.740Z,98241.15
2018-05-24T15:08:04.939Z,98236.36
2018-05-24T15:10:33.959Z,98224.61
2018-05-24T15:13:02.179Z,98230.13
2018-05-24T15:15:30.403Z,98227.91
2018-05-24T15:17:58.654Z,98240.75
2018-05-24T15:20:26.877Z,98231.75
2018-05-24T15:22:55.103Z,98234.83
2018-05-24T15:25:23.368Z,98237.81
2018-05-24T15:27:51.603Z,98230.07
2018-05-24T15:30:19.815Z,98229.08
2018-05-24T15:32:48.079Z,98214.19
2018-05-24T15:35:16.298Z,98217.14
2018-05-24T15:37:44.523Z,98214.41
2018-05-24T15:40:12.772Z,98220.80
2018-05-24T15:42:41.001Z,98224.94
2018-05-24T15:45:09.228Z,98226.30
2018-05-24T15:47:37.791Z,98228.28
2018-05-24T15:50:06.017Z,98225.05
2018-05-24T15:52:34.283Z,98225.60
2018-05-24T15:55:02.535Z,98231.96
2018-05-24T15:57:30.756Z,98225.71
2018-05-24T15:59:58.975Z,98230.56
2018-05-24T16:02:27.229Z,98228.73
2018-05-24T16:04:56.216Z,98224.70
2018-05-24T16:07:24.439Z,98219.61
2018-05-24T16:09:52.696Z,98217.36
2018-05-24T16:12:20.910Z,98222.45
2018-05-24T16:14:49.139Z,98214.91
2018-05-24T16:17:17.387Z,98214.73
2018-05-24T16:19:45.611Z,98215.52
2018-05-24T16:22:13.831Z,98210.43
2018-05-24T16:24:42.079Z,98215.58
2018-05-24T16:27:11.066Z,98214.20
2018-05-24T16:29:39.283Z,98210.71
2018-05-24T16:32:07.522Z,98211.13
2018-05-24T16:34:35.749Z,98218.17
2018-05-24T16:37:03.967Z,98218.22
2018-05-24T16:39:32.239Z,98214.94
2018-05-24T16:42:00.464Z,98214.48
2018-05-24T16:44:28.684Z,98214.20
2018-05-24T16:46:56.952Z,98217.05
2018-05-24T16:49:25.170Z,98218.47
2018-05-24T16:51:53.391Z,98217.69
2018-05-24T16:54:22.421Z,98228.56
2018-05-24T16:56:50.611Z,98222.23
2018-05-24T16:59:18.835Z,98216.51
2018-05-24T17:01:47.875Z,98212.45
2018-05-24T17:04:16.088Z,98211.30
2018-05-24T17:06:44.315Z,98225.48
2018-05-24T17:09:12.510Z,98225.19
2018-05-24T17:11:40.731Z,98219.26
2018-05-24T17:14:08.952Z,98209.94
2018-05-24T17:16:37.215Z,98217.30
2018-05-24T17:19:05.436Z,98221.28
2018-05-24T17:21:33.670Z,98224.13
2018-05-24T17:24:01.927Z,98226.45
2018-05-24T17:26:30.147Z,98242.53
2018-05-24T17:28:58.367Z,98239.79
2018-05-24T17:31:26.615Z,98239.55
2018-05-24T17:33:54.844Z,98240.96
2018-05-24T17:36:23.064Z,98239.23
2018-05-24T17:38:51.331Z,98243.11
2018-05-24T17:41:19.556Z,98246.92
2018-05-24T17:43:47.782Z,98241.77
2018-05-24T17:46:16.005Z,98238.63
2018-05-24T17:48:44.234Z,98235.48
2018-05-24T17:51:12.471Z,98240.41
2018-05-24T17:53:40.699Z,98246.64
2018-05-24T17:56:08.922Z,98249.19
2018-05-24T17:58:37.185Z,98260.41
2018-05-24T18:01:05.404Z,98260.36
2018-05-24T18:03:33.627Z,98265.66
2018-05-24T18:06:01.892Z,98266.85
2018-05-24T18:08:30.880Z,98259.52
2018-05-24T18:10:59.105Z,98257.71
2018-05-24T18:13:27.363Z,98246.28
2018-05-24T18:15:55.588Z,98245.95
2018-05-24T18:18:23.808Z,98246.30
2018-05-24T18:20:52.059Z,98258.59
2018-05-24T18:23:20.279Z,98257.30
2018-05-24T18:25:48.499Z,98260.53
2018-05-24T18:28:16.746Z,98254.22
2018-05-24T18:30:44.963Z,98267.02
2018-05-24T18:33:13.187Z,98256.80
2018-05-24T18:35:41.468Z,98252.55
2018-05-24T18:38:09.691Z,98252.55
2018-05-24T18:40:38.683Z,98248.89
2018-05-24T18:43:06.926Z,98244.88
2018-05-24T18:45:35.138Z,98249.97
2018-05-24T18:48:04.149Z,98241.17
2018-05-24T18:50:32.371Z,98243.98
2018-05-24T18:53:00.932Z,98243.59
2018-05-24T18:55:29.163Z,98246.27
2018-05-24T18:57:57.384Z,98245.05
2018-05-24T19:00:25.619Z,98246.89
2018-05-24T19:02:54.607Z,98256.19
2018-05-24T19:05:22.931Z,98265.36
2018-05-24T19:07:51.214Z,98266.48
2018-05-24T19:10:19.431Z,98266.09
2018-05-24T19:12:47.660Z,98265.02
2018-05-24T19:15:15.906Z,98262.04
2018-05-24T19:17:44.130Z,98259.61
2018-05-24T19:20:12.359Z,98266.54
2018-05-24T19:22:40.635Z,98276.55
2018-05-24T19:25:08.995Z,98282.38
2018-05-24T19:27:37.975Z,98279.49
2018-05-24T19:30:06.195Z,98282.38
2018-05-24T19:32:34.511Z,98289.84
2018-05-24T19:35:02.743Z,98301.23
2018-05-24T19:37:30.966Z,98297.29
2018-05-24T19:39:59.234Z,98305.84
2018-05-24T19:42:27.459Z,98302.11
2018-05-24T19:44:55.687Z,98311.88
2018-05-24T19:47:23.953Z,98314.84
2018-05-24T19:49:52.184Z,98315.31
2018-05-24T19:52:21.167Z,98320.38
2018-05-24T19:54:49.407Z,98318.52
2018-05-24T19:57:17.631Z,98314.62
2018-05-24T19:59:45.878Z,98317.27
2018-05-24T20:02:14.099Z,98325.91
2018-05-24T20:04:42.318Z,98331.28
2018-05-24T20:07:10.764Z,98333.45
2018-05-24T20:09:38.999Z,98344.44
2018-05-24T20:12:07.986Z,98351.12
2018-05-24T20:14:36.259Z,98348.92
2018-05-24T20:17:04.488Z,98352.95
2018-05-24T20:19:32.712Z,98349.89
2018-05-24T20:22:00.979Z,98350.28
2018-05-24T20:24:29.201Z,98349.50
2018-05-24T20:26:57.436Z,98344.47
2018-05-24T20:29:25.738Z,98344.47
2018-05-24T20:31:53.935Z,98351.42
2018-05-24T20:34:22.165Z,98347.72
2018-05-24T20:36:50.417Z,98347.87
2018-05-24T20:39:18.657Z,98345.74
2018-05-24T20:41:46.886Z,98346.11
2018-05-24T20:44:15.159Z,98348.03
2018-05-24T20:46:43.387Z,98347.79
2018-05-24T20:49:11.693Z,98339.84
2018-05-24T20:51:39.936Z,98346.37
2018-05-24T20:54:08.213Z,98348.74
2018-05-24T20:56:36.403Z,98349.67
2018-05-24T20:59:04.672Z,98351.53
2018-05-24T21:01:32.917Z,98349.58
2018-05-24T21:04:01.152Z,98342.32
2018-05-24T21:06:29.407Z,98343.48
2018-05-24T21:08:57.647Z,98342.59
2018-05-24T21:11:26.649Z,98344.99
2018-05-24T21:13:54.928Z,98340.56
2018-05-24T21:16:23.130Z,98341.88
2018-05-24T21:18:51.363Z,98343.08
2018-05-24T21:21:20.384Z,98333.51
2018-05-24T21:23:48.607Z,98324.63
2018-05-24T21:26:16.843Z,98325.56
2018-05-24T21:28:45.107Z,98331.11
2018-05-24T21:31:13.337Z,98334.09
2018-05-24T21:33:41.591Z,98339.06
2018-05-24T21:36:09.835Z,98333.06
2018-05-24T21:38:38.059Z,98329.13
2018-05-24T21:41:06.298Z,98330.73
2018-05-24T21:43:34.561Z,98325.94
2018-05-24T21:46:02.799Z,98326.94
2018-05-24T21:48:31.035Z,98329.67
2018-05-24T21:50:59.314Z,98333.73
2018-05-24T21:53:27.549Z,98337.61
2018-05-24T21:55:55.788Z,98338.91
2018-05-24T21:58:24.043Z,98338.03
2018-05-24T22:00:52.274Z,98332.53
2018-05-24T22:03:21.267Z,98336.20
2018-05-24T22:05:49.539Z,98339.33
2018-05-24T22:08:17.767Z,98340.98
2018-05-24T22:10:46.007Z,98342.78
2018-05-24T22:13:15.039Z,98348.89
2018-05-24T22:15:43.269Z,98343.77
2018-05-24T22:18:11.499Z,98343.55
2018-05-24T22:20:39.754Z,98349.28
2018-05-24T22:23:07.994Z,98351.52
2018-05-24T22:25:36.987Z,98351.42
2018-05-24T22:28:05.268Z,98358.31
2018-05-24T22:30:33.479Z,98355.77
2018-05-24T22:33:01.711Z,98351.24
2018-05-24T22:35:30.730Z,98349.88
2018-05-24T22:37:58.959Z,98354.00
2018-05-24T22:40:27.186Z,98355.20
2018-05-24T22:42:55.535Z,98361.89
2018-05-24T22:45:23.755Z,98357.55
2018-05-24T22:47:51.985Z,98355.02
2018-05-24T22:50:21.023Z,98363.56
2018-05-24T22:52:49.262Z,98360.89
2018-05-24T22:55:17.491Z,98362.16
2018-05-24T22:57:45.758Z,98358.94
2018-05-24T23:00:14.013Z,98361.58
2018-05-24T23:02:43.009Z,98361.00
2018-05-24T23:05:11.251Z,98357.75
2018-05-24T23:07:39.483Z,98359.03
2018-05-24T23:10:07.748Z,98363.67
2018-05-24T23:12:36.099Z,98355.67
2018-05-24T23:15:04.333Z,98357.27
2018-05-24T23:17:32.571Z,98352.64
2018-05-24T23:20:00.820Z,98342.21
2018-05-24T23:22:38.307Z,98346.45
2018-05-24T23:25:07.341Z,98341.63
2018-05-24T23:27:36.394Z,98340.73
2018-05-24T23:30:04.629Z,98344.66
2018-05-24T23:32:32.871Z,98340.55
2018-05-24T23:35:01.113Z,98342.60
2018-05-24T23:37:29.343Z,98344.97
2018-05-24T23:39:57.671Z,98346.14
2018-05-24T23:42:25.900Z,98345.65
2018-05-24T23:44:54.126Z,98349.67
2018-05-24T23:47:22.389Z,98353.33
2018-05-24T23:49:50.613Z,98359.30
2018-05-24T23:52:18.855Z,98365.77
2018-05-24T23:54:47.873Z,98364.88
2018-05-24T23:57:16.112Z,98367.44
2018-05-24T23:59:44.344Z,98363.39
